sensor_id;sensor_type;location;lat;lon;timestamp;temperature;humidity
9225;DHT22;4647;48.072;11.616;2022-12-18T00:02:07;-4.20;99.90
9225;DHT22;4647;48.072;11.616;2022-12-18T00:04:37;-4.20;99.90
9225;DHT22;4647;48.072;11.616;2022-12-18T00:07:04;-4.30;99.90
9225;DHT22;4647;48.072;11.616;2022-12-18T00:09:30;-4.20;99.90
9225;DHT22;4647;48.072;11.616;2022-12-18T00:11:57;-4.20;99.90
9225;DHT22;4647;48.072;11.616;2022-12-18T00:14:25;-4.20;99.90
9225;DHT22;4647;48.072;11.616;2022-12-18T00:16:52;-4.20;99.90
9225;DHT22;4647;48.072;11.616;2022-12-18T00:19:19;-4.20;99.90
9225;DHT22;4647;48.072;11.616;2022-12-18T00:21:46;-4.30;99.90
9225;DHT22;4647;48.072;11.616;2022-12-18T00:24:13;-4.30;99.90
9225;DHT22;4647;48.072;11.616;2022-12-18T00:26:40;-4.30;99.90
9225;DHT22;4647;48.072;11.616;2022-12-18T00:29:09;-4.30;99.90
9225;DHT22;4647;48.072;11.616;2022-12-18T00:31:38;-4.40;99.90
9225;DHT22;4647;48.072;11.616;2022-12-18T00:34:05;-4.30;99.90
9225;DHT22;4647;48.072;11.616;2022-12-18T00:36:33;-4.40;99.90
9225;DHT22;4647;48.072;11.616;2022-12-18T00:39:03;-4.30;99.90
9225;DHT22;4647;48.072;11.616;2022-12-18T00:41:30;-4.30;99.90
9225;DHT22;4647;48.072;11.616;2022-12-18T00:44:15;-4.30;99.90
9225;DHT22;4647;48.072;11.616;2022-12-18T00:46:44;-4.40;99.90
9225;DHT22;4647;48.072;11.616;2022-12-18T00:49:12;-4.40;99.90
9225;DHT22;4647;48.072;11.616;2022-12-18T00:51:39;-4.40;99.90
9225;DHT22;4647;48.072;11.616;2022-12-18T00:54:05;-4.40;99.90
9225;DHT22;4647;48.072;11.616;2022-12-18T00:56:32;-4.40;99.90
9225;DHT22;4647;48.072;11.616;2022-12-18T00:58:59;-4.50;99.90
9225;DHT22;4647;48.072;11.616;2022-12-18T01:01:26;-4.40;99.90
9225;DHT22;4647;48.072;11.616;2022-12-18T01:03:54;-4.50;99.90
9225;DHT22;4647;48.072;11.616;2022-12-18T01:06:24;-4.50;99.90
9225;DHT22;4647;48.072;11.616;2022-12-18T01:08:50;-4.50;99.90
9225;DHT22;4647;48.072;11.616;2022-12-18T01:11:19;-4.50;99.90
9225;DHT22;4647;48.072;11.616;2022-12-18T01:13:46;-4.60;99.90
9225;DHT22;4647;48.072;11.616;2022-12-18T01:16:15;-4.60;99.90
9225;DHT22;4647;48.072;11.616;2022-12-18T01:18:42;-4.60;99.90
9225;DHT22;4647;48.072;11.616;2022-12-18T01:21:12;-4.60;99.90
9225;DHT22;4647;48.072;11.616;2022-12-18T01:23:40;-4.60;99.90
9225;DHT22;4647;48.072;11.616;2022-12-18T01:26:15;-4.60;99.90
9225;DHT22;4647;48.072;11.616;2022-12-18T01:28:43;-4.60;99.90
9225;DHT22;4647;48.072;11.616;2022-12-18T01:31:16;-4.60;99.90
9225;DHT22;4647;48.072;11.616;2022-12-18T01:33:43;-4.50;99.90
9225;DHT22;4647;48.072;11.616;2022-12-18T01:36:18;-4.60;99.90
9225;DHT22;4647;48.072;11.616;2022-12-18T01:38:45;-4.50;99.90
9225;DHT22;4647;48.072;11.616;2022-12-18T01:41:12;-4.50;99.90
9225;DHT22;4647;48.072;11.616;2022-12-18T01:43:49;-4.50;99.90
9225;DHT22;4647;48.072;11.616;2022-12-18T01:46:17;-4.60;99.90
9225;DHT22;4647;48.072;11.616;2022-12-18T01:48:47;-4.50;99.90
9225;DHT22;4647;48.072;11.616;2022-12-18T01:51:16;-4.60;99.90
9225;DHT22;4647;48.072;11.616;2022-12-18T01:53:44;-4.60;99.90
9225;DHT22;4647;48.072;11.616;2022-12-18T01:56:13;-4.60;99.90
9225;DHT22;4647;48.072;11.616;2022-12-18T01:58:49;-4.60;99.90
9225;DHT22;4647;48.072;11.616;2022-12-18T02:01:17;-4.60;99.90
9225;DHT22;4647;48.072;11.616;2022-12-18T02:03:44;-4.60;99.90
9225;DHT22;4647;48.072;11.616;2022-12-18T02:06:16;-4.60;99.90
9225;DHT22;4647;48.072;11.616;2022-12-18T02:08:53;-4.60;99.90
9225;DHT22;4647;48.072;11.616;2022-12-18T02:11:33;-4.60;99.90
9225;DHT22;4647;48.072;11.616;2022-12-18T02:14:11;-4.60;99.90
9225;DHT22;4647;48.072;11.616;2022-12-18T02:16:46;-4.50;99.90
9225;DHT22;4647;48.072;11.616;2022-12-18T02:19:27;-4.50;99.90
9225;DHT22;4647;48.072;11.616;2022-12-18T02:22:07;-4.50;99.90
9225;DHT22;4647;48.072;11.616;2022-12-18T02:24:41;-4.50;99.90
9225;DHT22;4647;48.072;11.616;2022-12-18T02:27:14;-4.50;99.90
9225;DHT22;4647;48.072;11.616;2022-12-18T02:29:45;-4.60;99.90
9225;DHT22;4647;48.072;11.616;2022-12-18T02:32:15;-4.60;99.90
9225;DHT22;4647;48.072;11.616;2022-12-18T02:34:43;-4.50;99.90
9225;DHT22;4647;48.072;11.616;2022-12-18T02:37:13;-4.50;99.90
9225;DHT22;4647;48.072;11.616;2022-12-18T02:39:43;-4.50;99.90
9225;DHT22;4647;48.072;11.616;2022-12-18T02:42:12;-4.50;99.90
9225;DHT22;4647;48.072;11.616;2022-12-18T02:44:44;-4.50;99.90
9225;DHT22;4647;48.072;11.616;2022-12-18T02:47:13;-4.50;99.90
9225;DHT22;4647;48.072;11.616;2022-12-18T02:49:52;-4.50;99.90
9225;DHT22;4647;48.072;11.616;2022-12-18T02:52:27;-4.50;99.90
9225;DHT22;4647;48.072;11.616;2022-12-18T02:55:07;-4.40;99.90
9225;DHT22;4647;48.072;11.616;2022-12-18T02:57:42;-4.50;99.90
9225;DHT22;4647;48.072;11.616;2022-12-18T03:00:15;-4.50;99.90
9225;DHT22;4647;48.072;11.616;2022-12-18T03:02:46;-4.50;99.90
9225;DHT22;4647;48.072;11.616;2022-12-18T03:05:18;-4.50;99.90
9225;DHT22;4647;48.072;11.616;2022-12-18T03:07:50;-4.50;99.90
9225;DHT22;4647;48.072;11.616;2022-12-18T03:10:21;-4.40;99.90
9225;DHT22;4647;48.072;11.616;2022-12-18T03:12:53;-4.40;99.90
9225;DHT22;4647;48.072;11.616;2022-12-18T03:15:26;-4.40;99.90
9225;DHT22;4647;48.072;11.616;2022-12-18T03:17:59;-4.40;99.90
9225;DHT22;4647;48.072;11.616;2022-12-18T03:20:30;-4.40;99.90
9225;DHT22;4647;48.072;11.616;2022-12-18T03:23:04;-4.40;99.90
9225;DHT22;4647;48.072;11.616;2022-12-18T03:25:34;-4.30;99.90
9225;DHT22;4647;48.072;11.616;2022-12-18T03:28:03;-4.30;99.90
9225;DHT22;4647;48.072;11.616;2022-12-18T03:30:37;-4.30;99.90
9225;DHT22;4647;48.072;11.616;2022-12-18T03:33:08;-4.30;99.90
9225;DHT22;4647;48.072;11.616;2022-12-18T03:35:40;-4.30;99.90
9225;DHT22;4647;48.072;11.616;2022-12-18T03:38:08;-4.30;99.90
9225;DHT22;4647;48.072;11.616;2022-12-18T03:40:49;-4.30;99.90
9225;DHT22;4647;48.072;11.616;2022-12-18T03:43:20;-4.30;99.90
9225;DHT22;4647;48.072;11.616;2022-12-18T03:45:56;-4.30;99.90
9225;DHT22;4647;48.072;11.616;2022-12-18T03:48:29;-4.40;99.90
9225;DHT22;4647;48.072;11.616;2022-12-18T03:51:04;-4.30;99.90
9225;DHT22;4647;48.072;11.616;2022-12-18T03:53:36;-4.40;99.90
9225;DHT22;4647;48.072;11.616;2022-12-18T03:56:05;-4.30;99.90
9225;DHT22;4647;48.072;11.616;2022-12-18T03:58:34;-4.40;99.90
9225;DHT22;4647;48.072;11.616;2022-12-18T04:01:05;-4.40;99.90
9225;DHT22;4647;48.072;11.616;2022-12-18T04:03:34;-4.40;99.90
9225;DHT22;4647;48.072;11.616;2022-12-18T04:06:02;-4.40;99.90
9225;DHT22;4647;48.072;11.616;2022-12-18T04:08:30;-4.40;99.90
9225;DHT22;4647;48.072;11.616;2022-12-18T04:10:57;-4.40;99.90
9225;DHT22;4647;48.072;11.616;2022-12-18T04:13:25;-4.40;99.90
9225;DHT22;4647;48.072;11.616;2022-12-18T04:15:54;-4.40;99.90
9225;DHT22;4647;48.072;11.616;2022-12-18T04:18:22;-4.30;99.90
9225;DHT22;4647;48.072;11.616;2022-12-18T04:20:49;-4.30;99.90
9225;DHT22;4647;48.072;11.616;2022-12-18T04:23:15;-4.40;99.90
9225;DHT22;4647;48.072;11.616;2022-12-18T04:25:42;-4.40;99.90
9225;DHT22;4647;48.072;11.616;2022-12-18T04:28:09;-4.40;99.90
9225;DHT22;4647;48.072;11.616;2022-12-18T04:30:36;-4.40;99.90
9225;DHT22;4647;48.072;11.616;2022-12-18T04:33:03;-4.40;99.90
9225;DHT22;4647;48.072;11.616;2022-12-18T04:35:31;-4.40;99.90
9225;DHT22;4647;48.072;11.616;2022-12-18T04:37:58;-4.50;99.90
9225;DHT22;4647;48.072;11.616;2022-12-18T04:40:28;-4.50;99.90
9225;DHT22;4647;48.072;11.616;2022-12-18T04:42:54;-4.50;99.90
9225;DHT22;4647;48.072;11.616;2022-12-18T04:45:21;-4.50;99.90
9225;DHT22;4647;48.072;11.616;2022-12-18T04:47:48;-4.40;99.90
9225;DHT22;4647;48.072;11.616;2022-12-18T04:50:15;-4.50;99.90
9225;DHT22;4647;48.072;11.616;2022-12-18T04:52:43;-4.60;99.90
9225;DHT22;4647;48.072;11.616;2022-12-18T04:55:10;-4.50;99.90
9225;DHT22;4647;48.072;11.616;2022-12-18T04:57:37;-4.40;99.90
9225;DHT22;4647;48.072;11.616;2022-12-18T05:00:05;-4.40;99.90
9225;DHT22;4647;48.072;11.616;2022-12-18T05:02:32;-4.50;99.90
9225;DHT22;4647;48.072;11.616;2022-12-18T05:04:59;-4.60;99.90
9225;DHT22;4647;48.072;11.616;2022-12-18T05:07:27;-4.60;99.90
9225;DHT22;4647;48.072;11.616;2022-12-18T05:09:55;-4.60;99.90
9225;DHT22;4647;48.072;11.616;2022-12-18T05:12:23;-4.60;99.90
9225;DHT22;4647;48.072;11.616;2022-12-18T05:14:50;-4.60;99.90
9225;DHT22;4647;48.072;11.616;2022-12-18T05:17:17;-4.60;99.90
9225;DHT22;4647;48.072;11.616;2022-12-18T05:19:44;-4.60;99.90
9225;DHT22;4647;48.072;11.616;2022-12-18T05:22:11;-4.60;99.90
9225;DHT22;4647;48.072;11.616;2022-12-18T05:24:38;-4.60;99.90
9225;DHT22;4647;48.072;11.616;2022-12-18T05:27:06;-4.60;99.90
9225;DHT22;4647;48.072;11.616;2022-12-18T05:29:33;-4.60;99.90
9225;DHT22;4647;48.072;11.616;2022-12-18T05:32:00;-4.60;99.90
9225;DHT22;4647;48.072;11.616;2022-12-18T05:34:27;-4.50;99.90
9225;DHT22;4647;48.072;11.616;2022-12-18T05:36:54;-4.60;99.90
9225;DHT22;4647;48.072;11.616;2022-12-18T05:39:20;-4.50;99.90
9225;DHT22;4647;48.072;11.616;2022-12-18T05:41:47;-4.50;99.90
9225;DHT22;4647;48.072;11.616;2022-12-18T05:44:15;-4.50;99.90
9225;DHT22;4647;48.072;11.616;2022-12-18T05:46:42;-4.50;99.90
9225;DHT22;4647;48.072;11.616;2022-12-18T05:49:09;-4.50;99.90
9225;DHT22;4647;48.072;11.616;2022-12-18T05:51:36;-4.60;99.90
9225;DHT22;4647;48.072;11.616;2022-12-18T05:54:03;-4.60;99.90
9225;DHT22;4647;48.072;11.616;2022-12-18T05:56:30;-4.50;99.90
9225;DHT22;4647;48.072;11.616;2022-12-18T05:58:56;-4.50;99.90
9225;DHT22;4647;48.072;11.616;2022-12-18T06:01:26;-4.50;99.90
9225;DHT22;4647;48.072;11.616;2022-12-18T06:03:54;-4.50;99.90
9225;DHT22;4647;48.072;11.616;2022-12-18T06:06:23;-4.50;99.90
9225;DHT22;4647;48.072;11.616;2022-12-18T06:08:50;-4.40;99.90
9225;DHT22;4647;48.072;11.616;2022-12-18T06:11:19;-4.50;99.90
9225;DHT22;4647;48.072;11.616;2022-12-18T06:13:49;-4.50;99.90
9225;DHT22;4647;48.072;11.616;2022-12-18T06:16:16;-4.60;99.90
9225;DHT22;4647;48.072;11.616;2022-12-18T06:18:44;-4.60;99.90
9225;DHT22;4647;48.072;11.616;2022-12-18T06:21:11;-4.70;99.90
9225;DHT22;4647;48.072;11.616;2022-12-18T06:23:38;-4.70;99.90
9225;DHT22;4647;48.072;11.616;2022-12-18T06:26:05;-4.70;99.90
9225;DHT22;4647;48.072;11.616;2022-12-18T06:28:33;-4.80;99.90
9225;DHT22;4647;48.072;11.616;2022-12-18T06:30:59;-4.80;99.90
9225;DHT22;4647;48.072;11.616;2022-12-18T06:33:27;-4.80;99.90
9225;DHT22;4647;48.072;11.616;2022-12-18T06:35:59;-4.70;99.90
9225;DHT22;4647;48.072;11.616;2022-12-18T06:38:26;-4.70;99.90
9225;DHT22;4647;48.072;11.616;2022-12-18T06:40:53;-4.70;99.90
9225;DHT22;4647;48.072;11.616;2022-12-18T06:43:20;-4.70;99.90
9225;DHT22;4647;48.072;11.616;2022-12-18T06:45:47;-4.80;99.90
9225;DHT22;4647;48.072;11.616;2022-12-18T06:48:18;-4.80;99.90
9225;DHT22;4647;48.072;11.616;2022-12-18T06:50:45;-4.80;99.90
9225;DHT22;4647;48.072;11.616;2022-12-18T06:53:13;-4.90;99.90
9225;DHT22;4647;48.072;11.616;2022-12-18T06:55:40;-4.90;99.90
9225;DHT22;4647;48.072;11.616;2022-12-18T06:58:07;-4.80;99.90
9225;DHT22;4647;48.072;11.616;2022-12-18T07:00:34;-4.80;99.90
9225;DHT22;4647;48.072;11.616;2022-12-18T07:03:00;-4.80;99.90
9225;DHT22;4647;48.072;11.616;2022-12-18T07:05:27;-4.90;99.90
9225;DHT22;4647;48.072;11.616;2022-12-18T07:07:54;-4.90;99.90
9225;DHT22;4647;48.072;11.616;2022-12-18T07:10:22;-4.90;99.90
9225;DHT22;4647;48.072;11.616;2022-12-18T07:12:49;-4.80;99.90
9225;DHT22;4647;48.072;11.616;2022-12-18T07:15:16;-4.80;99.90
9225;DHT22;4647;48.072;11.616;2022-12-18T07:17:43;-4.70;99.90
9225;DHT22;4647;48.072;11.616;2022-12-18T07:20:10;-4.80;99.90
9225;DHT22;4647;48.072;11.616;2022-12-18T07:22:37;-4.70;99.90
9225;DHT22;4647;48.072;11.616;2022-12-18T07:25:05;-4.70;99.90
9225;DHT22;4647;48.072;11.616;2022-12-18T07:27:34;-4.70;99.90
9225;DHT22;4647;48.072;11.616;2022-12-18T07:30:01;-4.80;99.90
9225;DHT22;4647;48.072;11.616;2022-12-18T07:32:28;-4.80;99.90
9225;DHT22;4647;48.072;11.616;2022-12-18T07:34:56;-4.80;99.90
9225;DHT22;4647;48.072;11.616;2022-12-18T07:37:23;-4.80;99.90
9225;DHT22;4647;48.072;11.616;2022-12-18T07:39:50;-4.80;99.90
9225;DHT22;4647;48.072;11.616;2022-12-18T07:42:17;-4.80;99.90
9225;DHT22;4647;48.072;11.616;2022-12-18T07:45:00;-4.70;99.90
9225;DHT22;4647;48.072;11.616;2022-12-18T07:47:27;-4.80;99.90
9225;DHT22;4647;48.072;11.616;2022-12-18T07:49:57;-4.80;99.90
9225;DHT22;4647;48.072;11.616;2022-12-18T07:52:24;-4.80;99.90
9225;DHT22;4647;48.072;11.616;2022-12-18T07:54:51;-4.80;99.90
9225;DHT22;4647;48.072;11.616;2022-12-18T07:57:17;-4.70;99.90
9225;DHT22;4647;48.072;11.616;2022-12-18T07:59:44;-4.70;99.90
9225;DHT22;4647;48.072;11.616;2022-12-18T08:02:13;-4.70;99.90
9225;DHT22;4647;48.072;11.616;2022-12-18T08:04:40;-4.60;99.90
9225;DHT22;4647;48.072;11.616;2022-12-18T08:07:07;-4.60;99.90
9225;DHT22;4647;48.072;11.616;2022-12-18T08:09:33;-4.50;99.90
9225;DHT22;4647;48.072;11.616;2022-12-18T08:12:00;-4.50;99.90
9225;DHT22;4647;48.072;11.616;2022-12-18T08:14:27;-4.60;99.90
9225;DHT22;4647;48.072;11.616;2022-12-18T08:16:54;-4.60;99.90
9225;DHT22;4647;48.072;11.616;2022-12-18T08:19:22;-4.60;99.90
9225;DHT22;4647;48.072;11.616;2022-12-18T08:21:49;-4.70;99.90
9225;DHT22;4647;48.072;11.616;2022-12-18T08:24:16;-4.60;99.90
9225;DHT22;4647;48.072;11.616;2022-12-18T08:26:43;-4.60;99.90
9225;DHT22;4647;48.072;11.616;2022-12-18T08:29:10;-4.50;99.90
9225;DHT22;4647;48.072;11.616;2022-12-18T08:31:36;-4.60;99.90
9225;DHT22;4647;48.072;11.616;2022-12-18T08:34:03;-4.40;99.90
9225;DHT22;4647;48.072;11.616;2022-12-18T08:36:32;-4.30;99.90
9225;DHT22;4647;48.072;11.616;2022-12-18T08:38:58;-4.20;99.90
9225;DHT22;4647;48.072;11.616;2022-12-18T08:41:25;-4.20;99.90
9225;DHT22;4647;48.072;11.616;2022-12-18T08:43:52;-4.30;99.90
9225;DHT22;4647;48.072;11.616;2022-12-18T08:46:38;-4.40;99.90
9225;DHT22;4647;48.072;11.616;2022-12-18T08:49:06;-4.30;99.90
9225;DHT22;4647;48.072;11.616;2022-12-18T08:51:35;-4.20;99.90
9225;DHT22;4647;48.072;11.616;2022-12-18T08:54:03;-4.20;99.90
9225;DHT22;4647;48.072;11.616;2022-12-18T08:56:30;-4.30;99.90
9225;DHT22;4647;48.072;11.616;2022-12-18T08:58:57;-4.30;99.90
9225;DHT22;4647;48.072;11.616;2022-12-18T09:01:23;-4.20;99.90
9225;DHT22;4647;48.072;11.616;2022-12-18T09:03:51;-4.20;99.90
9225;DHT22;4647;48.072;11.616;2022-12-18T09:06:19;-4.20;99.90
9225;DHT22;4647;48.072;11.616;2022-12-18T09:08:48;-4.20;99.90
9225;DHT22;4647;48.072;11.616;2022-12-18T09:11:19;-4.20;99.90
9225;DHT22;4647;48.072;11.616;2022-12-18T09:13:46;-4.30;99.90
9225;DHT22;4647;48.072;11.616;2022-12-18T09:16:14;-4.30;99.90
9225;DHT22;4647;48.072;11.616;2022-12-18T09:18:41;-4.50;99.90
9225;DHT22;4647;48.072;11.616;2022-12-18T09:21:10;-4.50;99.90
9225;DHT22;4647;48.072;11.616;2022-12-18T09:23:37;-4.40;99.90
9225;DHT22;4647;48.072;11.616;2022-12-18T09:26:05;-4.30;99.90
9225;DHT22;4647;48.072;11.616;2022-12-18T09:28:33;-4.10;99.90
9225;DHT22;4647;48.072;11.616;2022-12-18T09:31:04;-4.00;99.90
9225;DHT22;4647;48.072;11.616;2022-12-18T09:33:32;-4.00;99.90
9225;DHT22;4647;48.072;11.616;2022-12-18T09:36:01;-4.00;99.90
9225;DHT22;4647;48.072;11.616;2022-12-18T09:38:28;-4.00;99.90
9225;DHT22;4647;48.072;11.616;2022-12-18T09:40:59;-4.10;99.90
9225;DHT22;4647;48.072;11.616;2022-12-18T09:43:33;-4.10;99.90
9225;DHT22;4647;48.072;11.616;2022-12-18T09:46:03;-4.00;99.90
9225;DHT22;4647;48.072;11.616;2022-12-18T09:48:35;-3.90;99.90
9225;DHT22;4647;48.072;11.616;2022-12-18T09:51:05;-3.90;99.90
9225;DHT22;4647;48.072;11.616;2022-12-18T09:53:37;-3.80;99.90
9225;DHT22;4647;48.072;11.616;2022-12-18T09:56:05;-4.00;99.90
9225;DHT22;4647;48.072;11.616;2022-12-18T09:58:41;-3.90;99.90
9225;DHT22;4647;48.072;11.616;2022-12-18T10:01:10;-3.60;99.90
9225;DHT22;4647;48.072;11.616;2022-12-18T10:03:37;-3.60;99.90
9225;DHT22;4647;48.072;11.616;2022-12-18T10:06:12;-3.70;99.90
9225;DHT22;4647;48.072;11.616;2022-12-18T10:08:44;-3.60;99.90
9225;DHT22;4647;48.072;11.616;2022-12-18T10:11:24;-3.50;99.90
9225;DHT22;4647;48.072;11.616;2022-12-18T10:14:00;-3.50;99.90
9225;DHT22;4647;48.072;11.616;2022-12-18T10:16:34;-3.40;99.90
9225;DHT22;4647;48.072;11.616;2022-12-18T10:19:20;-3.20;99.90
9225;DHT22;4647;48.072;11.616;2022-12-18T10:21:58;-2.90;99.90
9225;DHT22;4647;48.072;11.616;2022-12-18T10:24:33;-2.90;99.90
9225;DHT22;4647;48.072;11.616;2022-12-18T10:27:12;-3.10;99.90
9225;DHT22;4647;48.072;11.616;2022-12-18T10:29:43;-3.20;99.90
9225;DHT22;4647;48.072;11.616;2022-12-18T10:32:15;-3.10;99.90
9225;DHT22;4647;48.072;11.616;2022-12-18T10:34:45;-3.50;99.90
9225;DHT22;4647;48.072;11.616;2022-12-18T10:37:16;-3.50;99.90
9225;DHT22;4647;48.072;11.616;2022-12-18T10:39:44;-3.60;99.90
9225;DHT22;4647;48.072;11.616;2022-12-18T10:42:16;-3.80;99.90
9225;DHT22;4647;48.072;11.616;2022-12-18T10:44:44;-3.80;99.90
9225;DHT22;4647;48.072;11.616;2022-12-18T10:47:14;-3.80;99.90
9225;DHT22;4647;48.072;11.616;2022-12-18T10:49:47;-3.90;99.90
9225;DHT22;4647;48.072;11.616;2022-12-18T10:52:18;-3.90;99.90
9225;DHT22;4647;48.072;11.616;2022-12-18T10:54:48;-3.80;99.90
9225;DHT22;4647;48.072;11.616;2022-12-18T10:57:20;-3.70;99.90
9225;DHT22;4647;48.072;11.616;2022-12-18T10:59:58;-3.70;99.90
9225;DHT22;4647;48.072;11.616;2022-12-18T11:02:28;-3.80;99.90
9225;DHT22;4647;48.072;11.616;2022-12-18T11:04:59;-3.90;99.90
9225;DHT22;4647;48.072;11.616;2022-12-18T11:07:47;-3.70;99.90
9225;DHT22;4647;48.072;11.616;2022-12-18T11:10:17;-3.40;99.90
9225;DHT22;4647;48.072;11.616;2022-12-18T11:12:44;-3.20;99.90
9225;DHT22;4647;48.072;11.616;2022-12-18T11:15:16;-3.10;99.90
9225;DHT22;4647;48.072;11.616;2022-12-18T11:17:47;-3.00;99.90
9225;DHT22;4647;48.072;11.616;2022-12-18T11:20:29;-3.00;99.90
9225;DHT22;4647;48.072;11.616;2022-12-18T11:22:59;-3.30;99.90
9225;DHT22;4647;48.072;11.616;2022-12-18T11:25:31;-3.30;99.90
9225;DHT22;4647;48.072;11.616;2022-12-18T11:28:00;-3.40;99.90
9225;DHT22;4647;48.072;11.616;2022-12-18T11:30:31;-3.30;99.90
9225;DHT22;4647;48.072;11.616;2022-12-18T11:33:04;-3.30;99.90
9225;DHT22;4647;48.072;11.616;2022-12-18T11:35:39;-3.30;99.90
9225;DHT22;4647;48.072;11.616;2022-12-18T11:38:18;-3.50;99.90
9225;DHT22;4647;48.072;11.616;2022-12-18T11:40:51;-3.40;99.90
9225;DHT22;4647;48.072;11.616;2022-12-18T11:43:26;-3.40;99.90
9225;DHT22;4647;48.072;11.616;2022-12-18T11:45:59;-3.40;99.90
9225;DHT22;4647;48.072;11.616;2022-12-18T11:48:32;-3.30;99.90
9225;DHT22;4647;48.072;11.616;2022-12-18T11:51:02;-3.30;99.90
9225;DHT22;4647;48.072;11.616;2022-12-18T11:53:30;-3.30;99.90
9225;DHT22;4647;48.072;11.616;2022-12-18T11:56:03;-3.10;99.90
9225;DHT22;4647;48.072;11.616;2022-12-18T11:58:46;-3.10;99.90
9225;DHT22;4647;48.072;11.616;2022-12-18T12:01:27;-2.90;99.90
9225;DHT22;4647;48.072;11.616;2022-12-18T12:06:58;-2.90;99.90
9225;DHT22;4647;48.072;11.616;2022-12-18T12:09:33;-2.90;99.90
9225;DHT22;4647;48.072;11.616;2022-12-18T12:12:14;-2.80;99.90
9225;DHT22;4647;48.072;11.616;2022-12-18T12:14:52;-2.80;99.90
9225;DHT22;4647;48.072;11.616;2022-12-18T12:17:28;-3.00;99.90
9225;DHT22;4647;48.072;11.616;2022-12-18T12:20:02;-3.20;99.90
9225;DHT22;4647;48.072;11.616;2022-12-18T12:22:39;-3.30;99.90
9225;DHT22;4647;48.072;11.616;2022-12-18T12:25:19;-3.50;99.90
9225;DHT22;4647;48.072;11.616;2022-12-18T12:27:56;-3.60;99.90
9225;DHT22;4647;48.072;11.616;2022-12-18T12:30:30;-3.70;99.90
9225;DHT22;4647;48.072;11.616;2022-12-18T12:33:14;-3.80;99.90
9225;DHT22;4647;48.072;11.616;2022-12-18T12:35:52;-4.00;99.90
9225;DHT22;4647;48.072;11.616;2022-12-18T12:38:23;-4.00;99.90
9225;DHT22;4647;48.072;11.616;2022-12-18T12:40:54;-3.80;99.90
9225;DHT22;4647;48.072;11.616;2022-12-18T12:43:32;-3.60;99.90
9225;DHT22;4647;48.072;11.616;2022-12-18T12:46:04;-3.50;99.90
9225;DHT22;4647;48.072;11.616;2022-12-18T12:48:38;-3.40;99.90
9225;DHT22;4647;48.072;11.616;2022-12-18T12:51:12;-3.30;99.90
9225;DHT22;4647;48.072;11.616;2022-12-18T12:53:40;-3.40;99.90
9225;DHT22;4647;48.072;11.616;2022-12-18T12:56:10;-3.20;99.90
9225;DHT22;4647;48.072;11.616;2022-12-18T12:58:45;-3.30;99.90
9225;DHT22;4647;48.072;11.616;2022-12-18T13:01:22;-3.30;99.90
9225;DHT22;4647;48.072;11.616;2022-12-18T13:03:59;-3.40;99.90
9225;DHT22;4647;48.072;11.616;2022-12-18T13:06:42;-3.40;99.90
9225;DHT22;4647;48.072;11.616;2022-12-18T13:09:10;-3.40;99.90
9225;DHT22;4647;48.072;11.616;2022-12-18T13:11:39;-3.50;99.90
9225;DHT22;4647;48.072;11.616;2022-12-18T13:14:27;-3.60;99.90
9225;DHT22;4647;48.072;11.616;2022-12-18T13:20:04;-3.70;99.90
9225;DHT22;4647;48.072;11.616;2022-12-18T13:22:35;-3.60;99.90
9225;DHT22;4647;48.072;11.616;2022-12-18T13:25:04;-3.60;99.90
9225;DHT22;4647;48.072;11.616;2022-12-18T13:28:10;-3.50;99.90
9225;DHT22;4647;48.072;11.616;2022-12-18T13:30:49;-3.50;99.90
9225;DHT22;4647;48.072;11.616;2022-12-18T13:33:43;-3.50;99.90
9225;DHT22;4647;48.072;11.616;2022-12-18T13:45:41;-3.70;99.90
9225;DHT22;4647;48.072;11.616;2022-12-18T13:48:17;-3.80;99.90
9225;DHT22;4647;48.072;11.616;2022-12-18T13:50:52;-3.90;99.90
9225;DHT22;4647;48.072;11.616;2022-12-18T13:53:23;-3.90;99.90
9225;DHT22;4647;48.072;11.616;2022-12-18T13:55:51;-4.00;99.90
9225;DHT22;4647;48.072;11.616;2022-12-18T13:58:18;-4.10;99.90
9225;DHT22;4647;48.072;11.616;2022-12-18T14:00:45;-4.10;99.90
9225;DHT22;4647;48.072;11.616;2022-12-18T14:03:20;-4.00;99.90
9225;DHT22;4647;48.072;11.616;2022-12-18T14:05:54;-4.00;99.90
9225;DHT22;4647;48.072;11.616;2022-12-18T14:08:32;-4.00;99.90
9225;DHT22;4647;48.072;11.616;2022-12-18T14:11:00;-4.00;99.90
9225;DHT22;4647;48.072;11.616;2022-12-18T14:13:30;-4.10;99.90
9225;DHT22;4647;48.072;11.616;2022-12-18T14:15:57;-4.00;99.90
9225;DHT22;4647;48.072;11.616;2022-12-18T14:18:31;-4.00;99.90
9225;DHT22;4647;48.072;11.616;2022-12-18T14:21:02;-4.10;99.90
9225;DHT22;4647;48.072;11.616;2022-12-18T14:23:33;-4.10;99.90
9225;DHT22;4647;48.072;11.616;2022-12-18T14:26:01;-4.20;99.90
9225;DHT22;4647;48.072;11.616;2022-12-18T14:28:29;-4.20;99.90
9225;DHT22;4647;48.072;11.616;2022-12-18T14:30:56;-4.20;99.90
9225;DHT22;4647;48.072;11.616;2022-12-18T14:33:25;-4.30;99.90
9225;DHT22;4647;48.072;11.616;2022-12-18T14:35:57;-4.20;99.90
9225;DHT22;4647;48.072;11.616;2022-12-18T14:38:28;-4.20;99.90
9225;DHT22;4647;48.072;11.616;2022-12-18T14:41:01;-4.20;99.90
9225;DHT22;4647;48.072;11.616;2022-12-18T14:43:30;-4.30;99.90
9225;DHT22;4647;48.072;11.616;2022-12-18T14:45:59;-4.40;99.90
9225;DHT22;4647;48.072;11.616;2022-12-18T14:48:35;-4.50;99.90
9225;DHT22;4647;48.072;11.616;2022-12-18T14:51:04;-4.60;99.90
9225;DHT22;4647;48.072;11.616;2022-12-18T14:53:36;-4.60;99.90
9225;DHT22;4647;48.072;11.616;2022-12-18T14:56:14;-4.70;99.90
9225;DHT22;4647;48.072;11.616;2022-12-18T14:58:48;-4.60;99.90
9225;DHT22;4647;48.072;11.616;2022-12-18T15:01:24;-4.60;99.90
9225;DHT22;4647;48.072;11.616;2022-12-18T15:03:52;-4.70;99.90
9225;DHT22;4647;48.072;11.616;2022-12-18T15:06:27;-4.70;99.90
9225;DHT22;4647;48.072;11.616;2022-12-18T15:08:55;-4.80;99.90
9225;DHT22;4647;48.072;11.616;2022-12-18T15:11:47;-4.90;99.90
9225;DHT22;4647;48.072;11.616;2022-12-18T15:14:30;-5.00;99.90
9225;DHT22;4647;48.072;11.616;2022-12-18T15:16:58;-5.00;99.90
9225;DHT22;4647;48.072;11.616;2022-12-18T15:19:31;-5.10;99.90
9225;DHT22;4647;48.072;11.616;2022-12-18T15:21:59;-5.10;99.90
9225;DHT22;4647;48.072;11.616;2022-12-18T15:24:29;-5.20;99.90
9225;DHT22;4647;48.072;11.616;2022-12-18T15:26:58;-5.10;99.90
9225;DHT22;4647;48.072;11.616;2022-12-18T15:29:25;-5.00;99.90
9225;DHT22;4647;48.072;11.616;2022-12-18T15:32:03;-5.00;99.90
9225;DHT22;4647;48.072;11.616;2022-12-18T15:34:31;-4.90;99.90
9225;DHT22;4647;48.072;11.616;2022-12-18T15:36:59;-4.80;99.90
9225;DHT22;4647;48.072;11.616;2022-12-18T15:39:26;-4.80;99.90
9225;DHT22;4647;48.072;11.616;2022-12-18T15:41:53;-4.80;99.90
9225;DHT22;4647;48.072;11.616;2022-12-18T15:44:39;-4.80;99.90
9225;DHT22;4647;48.072;11.616;2022-12-18T15:47:10;-4.80;99.90
9225;DHT22;4647;48.072;11.616;2022-12-18T15:49:38;-4.80;99.90
9225;DHT22;4647;48.072;11.616;2022-12-18T15:52:05;-4.90;99.90
9225;DHT22;4647;48.072;11.616;2022-12-18T15:54:32;-4.80;99.90
9225;DHT22;4647;48.072;11.616;2022-12-18T15:57:16;-4.90;99.90
9225;DHT22;4647;48.072;11.616;2022-12-18T15:59:54;-4.80;99.90
9225;DHT22;4647;48.072;11.616;2022-12-18T16:02:23;-4.70;99.90
9225;DHT22;4647;48.072;11.616;2022-12-18T16:04:51;-4.70;99.90
9225;DHT22;4647;48.072;11.616;2022-12-18T16:07:19;-4.80;99.90
9225;DHT22;4647;48.072;11.616;2022-12-18T16:09:49;-4.80;99.90
9225;DHT22;4647;48.072;11.616;2022-12-18T16:12:18;-4.80;99.90
9225;DHT22;4647;48.072;11.616;2022-12-18T16:14:45;-4.80;99.90
9225;DHT22;4647;48.072;11.616;2022-12-18T16:17:14;-4.80;99.90
9225;DHT22;4647;48.072;11.616;2022-12-18T16:19:44;-4.80;99.90
9225;DHT22;4647;48.072;11.616;2022-12-18T16:22:19;-4.80;99.90